createdAt,value
2017-07-12T00:00:22.921Z,20.63
2017-07-12T00:02:51.192Z,24.10
2017-07-12T00:05:19.830Z,16.93
2017-07-12T00:07:48.113Z,17.43
2017-07-12T00:10:16.362Z,19.87
2017-07-12T00:12:44.615Z,21.53
2017-07-12T00:15:12.885Z,18.57
2017-07-12T00:17:41.139Z,20.70
2017-07-12T00:20:09.390Z,21.13
2017-07-12T00:22:37.652Z,21.03
2017-07-12T00:25:05.913Z,20.80
2017-07-12T00:27:34.169Z,18.37
2017-07-12T00:30:02.446Z,20.00
2017-07-12T00:32:30.726Z,17.80
2017-07-12T00:34:58.965Z,17.50
2017-07-12T00:37:27.277Z,20.47
2017-07-12T00:39:55.525Z,23.53
2017-07-12T00:42:24.186Z,18.83
2017-07-12T00:44:52.780Z,16.50
2017-07-12T00:47:21.032Z,22.80
2017-07-12T00:49:49.293Z,15.90
2017-07-12T00:52:17.585Z,18.77
2017-07-12T00:54:46.093Z,15.40
2017-07-12T00:57:14.349Z,23.23
2017-07-12T00:59:42.616Z,19.30
2017-07-12T01:02:10.857Z,20.83
2017-07-12T01:04:39.105Z,21.07
2017-07-12T01:07:07.807Z,18.20
2017-07-12T01:09:36.054Z,21.80
2017-07-12T01:12:04.292Z,21.63
2017-07-12T01:14:32.572Z,21.03
2017-07-12T01:17:00.830Z,19.53
2017-07-12T01:19:29.103Z,21.17
2017-07-12T01:21:57.368Z,22.10
2017-07-12T01:24:25.714Z,20.87
2017-07-12T01:26:54.805Z,22.20
2017-07-12T01:29:23.058Z,21.13
2017-07-12T01:31:51.400Z,21.53
2017-07-12T01:34:19.668Z,21.33
2017-07-12T01:36:47.914Z,24.30
2017-07-12T01:39:16.623Z,20.87
2017-07-12T01:41:45.283Z,26.40
2017-07-12T01:44:13.542Z,20.27
2017-07-12T01:46:41.815Z,20.80
2017-07-12T01:49:10.089Z,22.90
2017-07-12T01:51:38.354Z,24.20
2017-07-12T01:54:06.633Z,23.23
2017-07-12T01:56:35.345Z,22.60
2017-07-12T01:59:03.692Z,27.13
2017-07-12T02:01:32.164Z,23.73
2017-07-12T02:04:00.415Z,23.00
2017-07-12T02:06:28.963Z,21.87
2017-07-12T02:08:57.209Z,25.07
2017-07-12T02:11:25.461Z,20.87
2017-07-12T02:13:53.742Z,23.40
2017-07-12T02:16:22.001Z,20.37
2017-07-12T02:18:50.266Z,22.43
2017-07-12T02:21:18.958Z,22.37
2017-07-12T02:23:47.204Z,21.80
2017-07-12T02:26:15.469Z,20.10
2017-07-12T02:28:43.739Z,24.37
2017-07-12T02:31:11.977Z,24.43
2017-07-12T02:33:40.229Z,23.83
2017-07-12T02:36:08.893Z,22.37
2017-07-12T02:38:37.574Z,18.47
2017-07-12T02:41:05.819Z,18.03
2017-07-12T02:43:34.114Z,19.60
2017-07-12T02:46:02.608Z,20.13
2017-07-12T02:48:30.870Z,21.17
2017-07-12T02:50:59.164Z,25.33
2017-07-12T02:53:27.748Z,21.47
2017-07-12T02:55:55.993Z,26.57
2017-07-12T02:58:24.294Z,29.47
2017-07-12T03:00:52.537Z,35.43
2017-07-12T03:03:20.779Z,34.03
2017-07-12T03:05:49.121Z,27.93
2017-07-12T03:08:17.363Z,34.47
2017-07-12T03:10:46.578Z,33.20
2017-07-12T03:13:14.852Z,35.60
2017-07-12T03:15:43.097Z,20.73
2017-07-12T03:18:11.353Z,18.33
2017-07-12T03:20:39.633Z,19.07
2017-07-12T03:23:07.880Z,23.30
2017-07-12T03:25:36.129Z,45.27
2017-07-12T03:28:04.417Z,23.17
2017-07-12T03:30:32.669Z,21.73
2017-07-12T03:33:00.913Z,25.63
2017-07-12T03:35:29.197Z,18.77
2017-07-12T03:37:57.436Z,26.43
2017-07-12T03:40:25.680Z,27.63
2017-07-12T03:42:53.960Z,26.30
2017-07-12T03:45:22.252Z,24.73
2017-07-12T03:47:50.492Z,21.57
2017-07-12T03:50:19.019Z,21.33
2017-07-12T03:52:47.266Z,19.20
2017-07-12T03:55:15.663Z,27.70
2017-07-12T03:57:44.571Z,25.20
2017-07-12T04:00:14.200Z,21.70
2017-07-12T04:02:42.459Z,19.97
2017-07-12T04:05:11.153Z,26.77
2017-07-12T04:07:39.434Z,24.40
2017-07-12T04:10:07.729Z,23.57
2017-07-12T04:12:36.020Z,24.30
2017-07-12T04:15:04.376Z,22.50
2017-07-12T04:17:32.646Z,21.07
2017-07-12T04:20:01.330Z,25.37
2017-07-12T04:22:29.562Z,23.87
2017-07-12T04:24:58.210Z,22.53
2017-07-12T04:27:26.506Z,18.97
2017-07-12T04:29:54.767Z,18.87
2017-07-12T04:32:23.014Z,20.57
2017-07-12T04:34:51.791Z,23.37
2017-07-12T04:37:20.424Z,23.50
2017-07-12T04:39:48.694Z,14.73
2017-07-12T04:42:16.977Z,19.63
2017-07-12T04:44:45.220Z,20.87
2017-07-12T04:47:13.466Z,24.10
2017-07-12T04:49:41.760Z,24.20
2017-07-12T04:52:10.325Z,22.60
2017-07-12T04:54:38.810Z,24.13
2017-07-12T04:57:07.082Z,23.10
2017-07-12T04:59:35.623Z,19.90
2017-07-12T05:02:03.877Z,22.73
2017-07-12T05:04:32.168Z,22.97
2017-07-12T05:07:00.421Z,22.17
2017-07-12T05:09:28.672Z,22.90
2017-07-12T05:11:56.982Z,22.00
2017-07-12T05:14:25.285Z,23.03
2017-07-12T05:16:54.088Z,21.63
2017-07-12T05:19:22.828Z,18.90
2017-07-12T05:21:51.162Z,23.23
2017-07-12T05:24:19.651Z,22.30
2017-07-12T05:26:48.345Z,20.83
2017-07-12T05:29:16.587Z,23.00
2017-07-12T05:31:44.848Z,21.30
2017-07-12T05:34:13.142Z,18.50
2017-07-12T05:36:41.401Z,20.73
2017-07-12T05:39:09.646Z,17.70
2017-07-12T05:41:37.948Z,17.47
2017-07-12T05:44:06.191Z,19.47
2017-07-12T05:46:34.851Z,22.40
2017-07-12T05:49:03.135Z,25.10
2017-07-12T05:51:32.022Z,17.30
2017-07-12T05:54:00.285Z,16.30
2017-07-12T05:56:28.576Z,19.13
2017-07-12T05:58:57.106Z,13.70
2017-07-12T06:01:25.755Z,19.23
2017-07-12T06:03:55.066Z,16.40
2017-07-12T06:06:24.258Z,15.67
2017-07-12T06:08:52.871Z,15.13
2017-07-12T06:11:21.214Z,17.43
2017-07-12T06:13:49.467Z,16.40
2017-07-12T06:16:17.786Z,18.80
2017-07-12T06:18:46.086Z,15.67
2017-07-12T06:21:14.356Z,17.53
2017-07-12T06:23:42.623Z,15.40
2017-07-12T06:26:10.933Z,17.00
2017-07-12T06:28:39.197Z,21.10
2017-07-12T06:31:07.465Z,18.80
2017-07-12T06:33:35.760Z,20.53
2017-07-12T06:36:04.016Z,21.70
2017-07-12T06:38:32.307Z,17.00
2017-07-12T06:41:00.590Z,16.63
2017-07-12T06:43:28.849Z,17.37
2017-07-12T06:45:57.110Z,18.33
2017-07-12T06:48:25.514Z,13.73
2017-07-12T06:50:53.794Z,13.83
2017-07-12T06:53:22.061Z,15.00
2017-07-12T06:55:50.361Z,15.87
2017-07-12T06:58:18.621Z,13.53
2017-07-12T07:00:46.880Z,12.73
2017-07-12T07:03:15.163Z,10.30
2017-07-12T07:05:43.445Z,12.30
2017-07-12T07:08:11.699Z,11.97
2017-07-12T07:10:40.016Z,11.67
2017-07-12T07:13:08.293Z,10.17
2017-07-12T07:15:36.548Z,10.80
2017-07-12T07:18:05.050Z,9.73
2017-07-12T07:20:33.283Z,13.37
2017-07-12T07:23:01.564Z,13.30
2017-07-12T07:25:29.847Z,17.37
2017-07-12T07:27:58.508Z,12.70
2017-07-12T07:30:27.454Z,14.70
2017-07-12T07:32:55.785Z,16.83
2017-07-12T07:35:24.813Z,16.30
2017-07-12T07:37:53.068Z,13.20
2017-07-12T07:40:21.402Z,17.57
2017-07-12T07:42:49.639Z,15.70
2017-07-12T07:45:17.885Z,16.53
2017-07-12T07:47:46.240Z,12.37
2017-07-12T07:50:15.811Z,13.83
2017-07-12T07:52:44.097Z,11.57
2017-07-12T07:55:12.383Z,10.60
2017-07-12T07:57:41.039Z,9.67
2017-07-12T08:00:09.329Z,9.43
2017-07-12T08:02:37.790Z,9.07
2017-07-12T08:05:06.074Z,7.60
2017-07-12T08:07:34.390Z,14.40
2017-07-12T08:10:02.682Z,9.87
2017-07-12T08:12:30.921Z,7.10
2017-07-12T08:14:59.170Z,13.40
2017-07-12T08:17:27.468Z,10.93
2017-07-12T08:19:55.753Z,10.47
2017-07-12T08:22:25.007Z,11.33
2017-07-12T08:24:53.284Z,11.87
2017-07-12T08:27:21.602Z,13.20
2017-07-12T08:29:49.854Z,12.20
2017-07-12T08:32:18.167Z,12.60
2017-07-12T08:34:46.522Z,13.83
2017-07-12T08:37:14.743Z,9.30
2017-07-12T08:39:43.028Z,8.10
2017-07-12T08:42:11.302Z,11.23
2017-07-12T08:44:39.556Z,8.00
2017-07-12T08:47:07.842Z,7.97
2017-07-12T08:49:36.175Z,8.47
2017-07-12T08:52:04.403Z,7.63
2017-07-12T08:54:32.693Z,7.03
2017-07-12T08:57:00.930Z,5.77
2017-07-12T08:59:30.003Z,7.20
2017-07-12T09:01:58.440Z,8.40
2017-07-12T09:04:26.689Z,7.20
2017-07-12T09:06:54.927Z,7.83
2017-07-12T09:09:23.296Z,7.57
2017-07-12T09:11:51.529Z,6.30
2017-07-12T09:14:19.770Z,6.70
2017-07-12T09:16:48.050Z,11.33
2017-07-12T09:19:16.297Z,7.67
2017-07-12T09:21:44.693Z,5.90
2017-07-12T09:24:13.030Z,8.60
2017-07-12T09:34:06.471Z,5.70
2017-07-12T09:36:34.725Z,5.27
2017-07-12T09:39:03.008Z,6.10
2017-07-12T09:41:31.255Z,6.73
2017-07-12T09:43:59.496Z,9.27
2017-07-12T09:46:27.769Z,6.70
2017-07-12T09:48:56.034Z,5.47
2017-07-12T09:51:24.312Z,6.13
2017-07-12T09:53:52.587Z,7.07
2017-07-12T09:56:21.002Z,7.83
2017-07-12T09:58:50.005Z,5.83
2017-07-12T10:01:18.284Z,13.03
2017-07-12T10:03:46.559Z,5.80
2017-07-12T10:06:14.802Z,6.47
2017-07-12T10:08:43.090Z,7.50
2017-07-12T10:11:11.738Z,6.57
2017-07-12T10:13:40.217Z,5.90
2017-07-12T10:16:08.497Z,5.43
2017-07-12T10:18:37.173Z,11.10
2017-07-12T10:21:05.680Z,6.00
2017-07-12T10:23:34.000Z,6.80
2017-07-12T10:26:02.255Z,8.53
2017-07-12T10:28:30.896Z,7.50
2017-07-12T10:30:59.197Z,5.90
2017-07-12T10:33:27.434Z,7.70
2017-07-12T10:35:56.588Z,6.50
2017-07-12T10:38:24.907Z,8.47
2017-07-12T10:40:53.166Z,6.93
2017-07-12T10:43:21.536Z,7.67
2017-07-12T10:45:49.805Z,7.80
2017-07-12T10:48:18.070Z,7.93
2017-07-12T10:50:46.976Z,8.60
2017-07-12T10:53:15.282Z,9.17
2017-07-12T10:55:43.520Z,9.20
2017-07-12T10:58:12.165Z,7.30
2017-07-12T11:00:40.437Z,9.30
2017-07-12T11:03:08.674Z,8.20
2017-07-12T11:05:36.906Z,7.63
2017-07-12T11:08:05.241Z,6.97
2017-07-12T11:10:33.471Z,7.93
2017-07-12T11:13:02.120Z,6.83
2017-07-12T11:15:30.392Z,6.80
2017-07-12T11:17:58.658Z,9.77
2017-07-12T11:20:26.896Z,7.83
2017-07-12T11:22:55.213Z,9.50
2017-07-12T11:25:23.452Z,9.10
2017-07-12T11:27:51.695Z,9.20
2017-07-12T11:30:20.004Z,9.87
2017-07-12T11:32:48.248Z,8.87
2017-07-12T11:35:16.929Z,9.90
2017-07-12T11:37:45.211Z,7.33
2017-07-12T11:40:13.453Z,11.90
2017-07-12T11:42:42.269Z,8.53
2017-07-12T11:45:10.531Z,8.47
2017-07-12T11:47:38.763Z,8.23
2017-07-12T11:50:06.997Z,7.07
2017-07-12T11:52:35.284Z,6.97
2017-07-12T11:55:03.541Z,11.73
2017-07-12T11:57:31.780Z,7.50
2017-07-12T12:00:00.096Z,8.23
2017-07-12T12:02:28.342Z,10.40
2017-07-12T12:04:56.595Z,12.90
2017-07-12T12:07:24.867Z,8.97
2017-07-12T12:09:54.981Z,11.10
2017-07-12T12:12:23.262Z,12.17
2017-07-12T12:14:51.596Z,15.90
2017-07-12T12:17:19.872Z,12.13
2017-07-12T12:19:48.137Z,10.83
2017-07-12T12:22:16.530Z,9.20
2017-07-12T12:24:44.851Z,9.90
2017-07-12T12:27:14.046Z,10.83
2017-07-12T12:29:42.353Z,13.90
2017-07-12T12:32:12.062Z,7.70
2017-07-12T12:34:40.981Z,8.90
2017-07-12T12:37:09.274Z,14.80
2017-07-12T12:39:37.538Z,7.80
2017-07-12T12:42:07.574Z,9.80
2017-07-12T12:44:36.536Z,9.10
2017-07-12T12:47:04.913Z,7.43
2017-07-12T12:49:33.089Z,8.23
2017-07-12T12:52:01.358Z,9.20
2017-07-12T12:54:29.604Z,8.33
2017-07-12T12:56:58.064Z,10.70
2017-07-12T12:59:27.596Z,7.70
2017-07-12T13:01:55.889Z,8.33
2017-07-12T13:04:30.947Z,7.93
2017-07-12T13:06:59.195Z,8.70
2017-07-12T13:09:27.425Z,7.90
2017-07-12T13:11:56.641Z,9.60
2017-07-12T13:14:25.655Z,12.00
2017-07-12T13:16:54.293Z,13.70
2017-07-12T13:19:22.605Z,10.37
2017-07-12T13:21:50.858Z,12.07
2017-07-12T13:24:19.882Z,12.03
2017-07-12T13:26:48.196Z,7.73
2017-07-12T13:29:16.441Z,11.80
2017-07-12T13:31:45.170Z,13.53
2017-07-12T13:34:13.978Z,10.20
2017-07-12T13:36:42.628Z,9.90
2017-07-12T13:39:10.882Z,7.90
2017-07-12T13:41:40.205Z,11.07
2017-07-12T13:44:09.407Z,9.63
2017-07-12T13:46:38.020Z,17.93
2017-07-12T13:49:06.272Z,10.07
2017-07-12T13:51:35.334Z,15.83
2017-07-12T13:54:03.613Z,10.40
2017-07-12T13:56:32.775Z,12.33
2017-07-12T13:59:01.032Z,10.07
2017-07-12T14:01:29.660Z,13.20
2017-07-12T14:03:58.410Z,10.37
2017-07-12T14:06:27.645Z,10.90
2017-07-12T14:08:56.678Z,10.63
2017-07-12T14:11:26.723Z,12.70
2017-07-12T14:13:55.999Z,10.97
2017-07-12T14:16:24.269Z,13.30
2017-07-12T14:18:52.616Z,12.93
2017-07-12T14:21:20.936Z,10.23
2017-07-12T14:23:49.563Z,13.70
2017-07-12T14:26:17.840Z,12.67
2017-07-12T14:28:46.087Z,14.03
2017-07-12T14:31:14.349Z,10.73
2017-07-12T14:33:42.621Z,12.47
2017-07-12T14:36:11.272Z,16.50
2017-07-12T14:38:39.586Z,13.50
2017-07-12T14:41:08.343Z,13.47
2017-07-12T14:43:36.640Z,14.20
2017-07-12T14:46:04.865Z,13.47
2017-07-12T14:48:33.794Z,12.57
2017-07-12T14:51:02.122Z,12.90
2017-07-12T14:53:30.408Z,13.70
2017-07-12T14:55:58.670Z,11.30
2017-07-12T14:58:26.991Z,12.10
2017-07-12T15:00:55.277Z,11.23
2017-07-12T15:03:23.600Z,11.37
2017-07-12T15:05:51.845Z,9.03
2017-07-12T15:08:20.517Z,12.10
2017-07-12T15:10:48.813Z,10.10
2017-07-12T15:13:17.053Z,12.27
2017-07-12T15:15:45.355Z,12.77
2017-07-12T15:18:14.155Z,10.13
2017-07-12T15:20:42.816Z,11.33
2017-07-12T15:23:11.075Z,8.90
2017-07-12T15:25:39.379Z,11.10
2017-07-12T15:28:08.570Z,15.40
2017-07-12T15:30:36.869Z,11.10
2017-07-12T15:33:05.586Z,12.67
2017-07-12T15:35:33.829Z,14.73
2017-07-12T15:38:02.082Z,12.53
2017-07-12T15:40:30.373Z,11.03
2017-07-12T15:42:58.621Z,13.23
2017-07-12T15:45:26.917Z,13.97
2017-07-12T15:47:55.570Z,10.93
2017-07-12T15:50:23.803Z,11.90
2017-07-12T15:52:53.031Z,10.70
2017-07-12T15:55:21.343Z,11.83
2017-07-12T15:57:49.624Z,11.50
2017-07-12T16:00:17.895Z,15.40
2017-07-12T16:02:46.401Z,10.47
2017-07-12T16:05:14.808Z,8.80
2017-07-12T16:07:43.136Z,9.50
2017-07-12T16:10:11.412Z,8.57
2017-07-12T16:12:39.674Z,8.43
2017-07-12T16:15:07.933Z,8.03
2017-07-12T16:17:36.188Z,7.23
2017-07-12T16:20:04.461Z,7.87
2017-07-12T16:22:32.779Z,11.13
2017-07-12T16:25:01.072Z,7.50
2017-07-12T16:27:29.340Z,7.10
2017-07-12T16:29:57.675Z,7.13
2017-07-12T16:32:26.628Z,10.03
2017-07-12T16:34:55.317Z,7.90
2017-07-12T16:37:27.230Z,7.60
2017-07-12T16:39:55.642Z,6.47
2017-07-12T16:42:23.931Z,11.93
2017-07-12T16:44:52.334Z,6.70
2017-07-12T16:47:21.080Z,8.80
2017-07-12T16:49:49.558Z,7.43
2017-07-12T16:52:17.825Z,6.63
2017-07-12T16:54:46.062Z,5.60
2017-07-12T16:57:14.310Z,7.93
2017-07-12T16:59:42.634Z,11.83
2017-07-12T17:02:10.882Z,7.27
2017-07-12T17:04:39.157Z,7.73
2017-07-12T17:07:07.598Z,4.60
2017-07-12T17:09:35.896Z,9.83
2017-07-12T17:12:04.335Z,5.53
2017-07-12T17:14:32.695Z,5.87
2017-07-12T17:17:00.961Z,9.77
2017-07-12T17:19:29.394Z,7.90
2017-07-12T17:21:57.920Z,6.30
2017-07-12T17:24:26.180Z,10.10
2017-07-12T17:26:54.425Z,4.57
2017-07-12T17:29:22.801Z,6.10
2017-07-12T17:31:51.063Z,4.73
2017-07-12T17:34:19.358Z,9.93
2017-07-12T17:36:47.664Z,5.73
2017-07-12T17:39:16.021Z,5.97
2017-07-12T17:41:44.374Z,6.87
2017-07-12T17:44:13.329Z,4.40
2017-07-12T17:46:41.632Z,4.73
2017-07-12T17:49:09.884Z,6.60
2017-07-12T17:51:39.643Z,5.47
2017-07-12T17:54:09.129Z,6.57
2017-07-12T17:56:52.951Z,5.30
2017-07-12T17:59:22.460Z,3.87
2017-07-12T18:01:51.115Z,3.70
2017-07-12T18:04:19.372Z,3.50
2017-07-12T18:06:48.018Z,7.10
2017-07-12T18:09:16.272Z,5.60
2017-07-12T18:11:44.934Z,2.53
2017-07-12T18:14:13.325Z,2.40
2017-07-12T18:16:41.593Z,4.00
2017-07-12T18:19:09.844Z,3.33
2017-07-12T18:21:38.441Z,7.07
2017-07-12T18:24:06.845Z,4.53
2017-07-12T18:26:35.409Z,2.60
2017-07-12T18:29:04.036Z,4.10
2017-07-12T18:31:32.332Z,6.80
2017-07-12T18:34:00.714Z,5.20
2017-07-12T18:36:28.970Z,3.50
2017-07-12T18:38:57.350Z,9.23
2017-07-12T18:41:25.487Z,4.17
2017-07-12T18:43:53.748Z,5.00
2017-07-12T18:46:22.121Z,3.73
2017-07-12T18:48:50.357Z,3.40
2017-07-12T18:51:18.856Z,3.43
2017-07-12T18:53:47.758Z,5.03
2017-07-12T18:56:16.121Z,5.90
2017-07-12T18:58:44.621Z,3.40
2017-07-12T19:01:13.306Z,33.83
2017-07-12T19:03:41.955Z,8.03
2017-07-12T19:06:10.199Z,6.10
2017-07-12T19:08:38.547Z,6.40
2017-07-12T19:11:07.196Z,3.73
2017-07-12T19:13:35.434Z,3.10
2017-07-12T19:16:03.711Z,3.20
2017-07-12T19:18:31.962Z,5.07
2017-07-12T19:21:00.308Z,6.07
2017-07-12T19:23:28.569Z,6.70
2017-07-12T19:25:56.808Z,3.30
2017-07-12T19:28:25.090Z,3.53
2017-07-12T19:30:53.374Z,6.80
2017-07-12T19:33:21.625Z,5.33
2017-07-12T19:35:49.878Z,4.03
2017-07-12T19:38:18.161Z,4.30
2017-07-12T19:40:46.789Z,4.43
2017-07-12T19:43:15.104Z,3.60
2017-07-12T19:45:43.373Z,3.27
2017-07-12T19:48:11.616Z,6.40
2017-07-12T19:50:39.885Z,6.13
2017-07-12T19:53:08.173Z,5.93
2017-07-12T19:55:36.417Z,5.00
2017-07-12T19:58:04.669Z,6.07
2017-07-12T20:00:32.958Z,4.80
2017-07-12T20:03:01.597Z,4.00
2017-07-12T20:05:29.842Z,5.97
2017-07-12T20:07:58.119Z,4.30
2017-07-12T20:10:26.361Z,7.67
2017-07-12T20:12:55.022Z,5.80
2017-07-12T20:15:23.297Z,7.37
2017-07-12T20:17:51.539Z,8.27
2017-07-12T20:20:19.765Z,8.93
2017-07-12T20:22:48.287Z,9.93
2017-07-12T20:25:16.520Z,7.03
2017-07-12T20:27:44.797Z,6.50
2017-07-12T20:30:13.358Z,6.43
2017-07-12T20:32:41.605Z,7.30
2017-07-12T20:35:09.891Z,10.60
2017-07-12T20:37:38.176Z,12.07
2017-07-12T20:40:06.555Z,10.07
2017-07-12T20:42:34.880Z,12.50
2017-07-12T20:45:03.616Z,9.70
2017-07-12T20:47:31.868Z,8.97
2017-07-12T20:50:00.205Z,7.70
2017-07-12T20:52:28.797Z,9.07
2017-07-12T20:54:57.424Z,9.33
2017-07-12T20:57:26.117Z,6.13
2017-07-12T20:59:54.398Z,7.67
2017-07-12T21:02:22.900Z,4.03
2017-07-12T21:04:51.152Z,8.07
2017-07-12T21:07:19.432Z,11.53
2017-07-12T21:09:47.681Z,2.13
2017-07-12T21:12:16.103Z,1.77
2017-07-12T21:14:45.177Z,2.53
2017-07-12T21:17:13.421Z,1.63
2017-07-12T21:19:41.655Z,1.43
2017-07-12T21:22:09.924Z,3.30
2017-07-12T21:24:38.189Z,2.23
2017-07-12T21:27:06.818Z,3.50
2017-07-12T21:29:35.236Z,2.33
2017-07-12T21:32:03.476Z,2.93
2017-07-12T21:34:32.540Z,1.73
2017-07-12T21:37:00.833Z,2.20
2017-07-12T21:39:29.080Z,2.30
2017-07-12T21:41:57.608Z,2.43
2017-07-12T21:44:25.895Z,2.93
2017-07-12T21:46:54.128Z,6.30
2017-07-12T21:49:22.369Z,3.43
2017-07-12T21:51:50.880Z,1.97
2017-07-12T21:54:36.713Z,2.07
2017-07-12T21:57:22.686Z,3.37
2017-07-12T22:00:08.636Z,3.97
2017-07-12T22:02:54.586Z,5.87
2017-07-12T22:05:40.433Z,6.80
2017-07-12T22:08:26.254Z,8.33
2017-07-12T22:11:12.181Z,3.20
2017-07-12T22:13:58.058Z,4.23
2017-07-12T22:16:43.904Z,4.30
2017-07-12T22:19:30.330Z,5.97
2017-07-12T22:22:16.524Z,2.70
2017-07-12T22:25:02.636Z,4.90
2017-07-12T22:27:48.561Z,8.23
2017-07-12T22:30:34.533Z,3.77
2017-07-12T22:33:21.862Z,7.80
2017-07-12T22:36:07.885Z,8.97
2017-07-12T22:38:41.796Z,8.30
2017-07-12T22:41:15.685Z,5.83
2017-07-12T22:43:43.443Z,9.40
2017-07-12T22:46:11.721Z,5.03
2017-07-12T22:48:40.099Z,5.87
2017-07-12T22:51:08.475Z,7.03
2017-07-12T22:53:36.728Z,5.77
2017-07-12T22:56:05.016Z,5.53
2017-07-12T22:58:33.408Z,7.47
2017-07-12T23:01:01.647Z,7.17
2017-07-12T23:03:29.940Z,7.10
2017-07-12T23:05:58.181Z,7.97
2017-07-12T23:08:26.441Z,4.53
2017-07-12T23:10:54.729Z,6.83
2017-07-12T23:13:22.973Z,8.10
2017-07-12T23:15:51.231Z,8.60
2017-07-12T23:18:19.496Z,8.20
2017-07-12T23:20:47.727Z,7.43
2017-07-12T23:23:15.959Z,9.50
2017-07-12T23:25:44.237Z,8.43
2017-07-12T23:28:12.724Z,14.57
2017-07-12T23:30:41.188Z,9.47
2017-07-12T23:33:09.460Z,6.07
2017-07-12T23:35:37.691Z,10.67
2017-07-12T23:38:05.939Z,8.90
2017-07-12T23:40:34.222Z,7.00
2017-07-12T23:43:02.689Z,6.50
2017-07-12T23:45:30.932Z,6.20
2017-07-12T23:47:59.227Z,7.97
2017-07-12T23:50:27.464Z,10.70
2017-07-12T23:52:55.713Z,8.63
2017-07-12T23:55:24.530Z,7.13
2017-07-12T23:57:52.779Z,6.40
